Thursday, December 12, 2019, 9:30 PM GMT
Back to Local

CWIT, Saint Clothilde Automated Reporting Station

Location: , , Canada Lat: 45.167
Local Time: 9:30 PM GMT (21:30 GMT) Lon: -73.683
Time Zone: GMT Elev: 170 ft

Show me the last for .
Show Coded

Time T Td Feel RH Dir Speed Gust Alt SLP Vis Weather Sky Remarks
2019-12-12 21:00 23 12 18 62 140° 3 - - 30.60 0 None
2019-12-12 20:00 26 8 - 46 240° 1 - - 30.60 0 None
2019-12-12 19:00 24 8 18 50 230° 5 - - 30.61 0 None
2019-12-12 18:00 23 6 16 47 220° 6 - - 30.63 0 None
2019-12-12 17:00 22 4 14 45 240° 6 - - 30.64 0 None
2019-12-12 16:00 21 3 12 45 260° 7 - - 30.66 0 None
2019-12-12 15:00 20 4 11 48 280° 7 - - 30.67 0 None
2019-12-12 14:00 18 5 9 56 280° 7 - - 30.64 0 None
2019-12-12 13:00 16 4 7 57 290° 7 - - 30.60 0 None
2019-12-12 12:00 16 5 8 59 310° 6 - - 30.56 0 None
2019-12-12 11:00 18 4 7 52 290° 9 - - 30.53 0 None
2019-12-12 10:00 18 6 9 58 280° 7 - - 30.49 0 None
2019-12-12 09:00 16 3 11 55 250° 3 - - 30.47 0 None
2019-12-12 08:00 17 2 10 49 270° 5 - - 30.46 0 None
2019-12-12 07:00 17 1 9 48 270° 6 - - 30.44 0 None
2019-12-12 06:00 18 4 1 54 280° 9 21 - 30.41 0 Peak wind: 20 mph (18 kts) from 270° at 52 min
2019-12-12 05:00 19 8 4 60 280° 10 17 - 30.37 0 Peak wind: 23 mph (20 kts) from 270° at 11 min
2019-12-12 04:00 20 7 4 55 270° 10 20 - 30.34 0 Peak wind: 23 mph (20 kts) from 280° at 21 min
2019-12-12 03:00 21 7 4 54 300° 13 26 - 30.28 0 Peak wind: 26 mph (23 kts) from 290° at 08 min
Pressure rising rapidly
2019-12-12 02:00 24 13 9 62 270° 12 23 - 30.22 0 Peak wind: 23 mph (20 kts) from 260° at 52 min
2019-12-12 01:00 25 17 9 70 280° 13 25 - 30.18 0 Peak wind: 25 mph (22 kts) from 290° at 53 min
2019-12-12 00:00 28 17 19 63 250° 9 - - 30.14 0 Peak wind: 25 mph (22 kts) from 270° at 11 min
2019-12-11 23:00 26 20 12 76 240° 9 23 - 30.11 0 Peak wind: 23 mph (20 kts) from 260° at 58 min
1-hr Precip Total: 0.04"
2019-12-11 22:00 28 24 - 85 240° 2 - - 30.09 0 1-hr Precip Total: 0.03"

Support USWX by starting your Amazon purchase here.